Time,TemperatureF,DewpointF,PressureIn,WindDirection,WindDirectionDegrees,WindSpeedMPH,WindSpeedGustMPH,Humidity,HourlyPrecipIn,Conditions,Clouds,dailyrainin,SoftwareType,DateUTC
2013-04-12 00:00:00,40.5,38.6,29.53,SSE,163,5.0,5.0,93,0.00,,,0.02,Wunderground v.1.15,2013-04-12 05:00:00,
2013-04-12 00:05:00,40.5,38.6,29.53,South,170,4.0,5.0,93,0.00,,,0.02,Wunderground v.1.15,2013-04-12 05:05:00,
2013-04-12 00:10:00,40.6,38.7,29.53,SSE,165,4.0,4.0,93,0.00,,,0.02,Wunderground v.1.15,2013-04-12 05:10:00,
2013-04-12 00:15:00,40.6,38.7,29.54,SSE,167,3.0,4.0,93,0.00,,,0.02,Wunderground v.1.15,2013-04-12 05:15:00,
2013-04-12 00:20:00,40.5,38.6,29.54,SSE,156,3.0,3.0,93,0.00,,,0.02,Wunderground v.1.15,2013-04-12 05:20:00,
2013-04-12 00:25:00,40.5,39.4,29.54,SSE,165,4.0,4.0,96,0.00,,,0.02,Wunderground v.1.15,2013-04-12 05:25:00,
2013-04-12 00:30:00,40.5,38.6,29.54,SSE,156,3.0,4.0,93,0.00,,,0.02,Wunderground v.1.15,2013-04-12 05:30:00,
2013-04-12 00:35:00,40.5,38.6,29.54,SE,146,3.0,4.0,93,0.00,,,0.02,Wunderground v.1.15,2013-04-12 05:35:00,
2013-04-12 00:40:00,40.5,38.6,29.54,SE,138,3.0,3.0,93,0.00,,,0.02,Wunderground v.1.15,2013-04-12 05:40:00,
2013-04-12 00:45:00,40.5,38.9,29.54,South,184,3.0,5.0,94,0.00,,,0.02,Wunderground v.1.15,2013-04-12 05:45:00,
2013-04-12 00:50:00,40.5,38.9,29.54,South,178,3.0,6.0,94,0.00,,,0.02,Wunderground v.1.15,2013-04-12 05:50:00,
2013-04-12 00:55:00,40.5,38.9,29.54,South,181,4.0,6.0,94,0.00,,,0.02,Wunderground v.1.15,2013-04-12 05:55:00,
2013-04-12 01:00:00,40.5,38.9,29.54,SSE,165,4.0,4.0,94,0.00,,,0.02,Wunderground v.1.15,2013-04-12 06:00:00,
2013-04-12 01:04:00,40.5,38.9,29.54,SSE,164,3.0,4.0,94,0.00,,,0.02,Wunderground v.1.15,2013-04-12 06:04:00,
2013-04-12 01:09:00,40.6,39.0,29.54,South,175,3.0,4.0,94,0.00,,,0.02,Wunderground v.1.15,2013-04-12 06:09:00,
2013-04-12 01:14:00,40.6,39.0,29.54,SSE,168,4.0,5.0,94,0.00,,,0.02,Wunderground v.1.15,2013-04-12 06:14:00,
2013-04-12 01:20:00,40.6,39.0,29.54,South,173,5.0,6.0,94,0.00,,,0.02,Wunderground v.1.15,2013-04-12 06:20:00,
2013-04-12 01:25:00,40.6,39.0,29.54,South,175,4.0,6.0,94,0.00,,,0.03,Wunderground v.1.15,2013-04-12 06:25:00,
2013-04-12 01:30:00,40.6,39.0,29.55,South,171,4.0,4.0,94,0.00,,,0.03,Wunderground v.1.15,2013-04-12 06:30:00,
2013-04-12 01:35:00,40.6,39.0,29.55,South,173,3.0,5.0,94,0.00,,,0.03,Wunderground v.1.15,2013-04-12 06:35:00,
2013-04-12 01:40:00,40.6,39.0,29.55,South,178,4.0,4.0,94,0.00,,,0.03,Wunderground v.1.15,2013-04-12 06:40:00,
2013-04-12 01:50:00,40.6,39.0,29.54,South,190,3.0,5.0,94,0.00,,,0.03,Wunderground v.1.15,2013-04-12 06:50:00,
2013-04-12 01:55:00,40.8,39.2,29.54,South,190,2.0,5.0,94,0.00,,,0.03,Wunderground v.1.15,2013-04-12 06:55:00,
2013-04-12 02:00:00,40.9,39.3,29.53,West,273,3.0,8.0,94,0.00,,,0.03,Wunderground v.1.15,2013-04-12 07:00:00,
2013-04-12 02:05:00,41.1,39.5,29.53,West,259,4.0,8.0,94,0.00,,,0.04,Wunderground v.1.15,2013-04-12 07:05:00,
2013-04-12 02:10:00,41.2,39.6,29.53,WSW,250,4.0,7.0,94,0.00,,,0.04,Wunderground v.1.15,2013-04-12 07:10:00,
2013-04-12 02:15:00,41.2,39.6,29.53,West,266,5.0,9.0,94,0.00,,,0.04,Wunderground v.1.15,2013-04-12 07:15:00,
2013-04-12 02:20:00,41.1,39.5,29.53,West,261,6.0,6.0,94,0.00,,,0.04,Wunderground v.1.15,2013-04-12 07:20:00,
2013-04-12 02:24:00,40.9,39.3,29.53,WSW,242,5.0,6.0,94,0.00,,,0.05,Wunderground v.1.15,2013-04-12 07:24:00,
2013-04-12 02:29:00,40.8,39.2,29.54,WSW,258,5.0,6.0,94,0.00,,,0.05,Wunderground v.1.15,2013-04-12 07:29:00,
2013-04-12 02:34:00,40.6,39.0,29.54,WNW,286,5.0,6.0,94,0.00,,,0.05,Wunderground v.1.15,2013-04-12 07:34:00,
2013-04-12 02:40:00,40.5,38.9,29.54,West,259,4.0,6.0,94,0.00,,,0.05,Wunderground v.1.15,2013-04-12 07:40:00,
2013-04-12 02:44:00,40.3,38.7,29.54,West,280,6.0,6.0,94,0.00,,,0.05,Wunderground v.1.15,2013-04-12 07:44:00,
2013-04-12 02:50:00,40.2,38.6,29.54,West,266,7.0,7.0,94,0.00,,,0.05,Wunderground v.1.15,2013-04-12 07:50:00,
2013-04-12 02:55:00,40.2,38.6,29.54,West,265,6.0,10.0,94,0.00,,,0.05,Wunderground v.1.15,2013-04-12 07:55:00,
2013-04-12 03:00:00,40.1,38.5,29.53,West,275,7.0,8.0,94,0.00,,,0.06,Wunderground v.1.15,2013-04-12 08:00:00,
2013-04-12 03:05:00,40.1,38.5,29.53,West,281,7.0,10.0,94,0.00,,,0.06,Wunderground v.1.15,2013-04-12 08:05:00,
2013-04-12 03:10:00,40.1,38.5,29.53,West,268,6.0,6.0,94,0.00,,,0.06,Wunderground v.1.15,2013-04-12 08:10:00,
2013-04-12 03:20:00,39.8,38.2,29.53,West,263,5.0,5.0,94,0.00,,,0.06,Wunderground v.1.15,2013-04-12 08:20:00,
2013-04-12 03:25:00,39.8,38.5,29.53,West,266,5.0,5.0,95,0.00,,,0.06,Wunderground v.1.15,2013-04-12 08:25:00,
2013-04-12 03:30:00,39.6,38.0,29.53,West,273,5.0,11.0,94,0.00,,,0.06,Wunderground v.1.15,2013-04-12 08:30:00,
2013-04-12 03:35:00,39.5,38.2,29.53,West,273,6.0,11.0,95,0.00,,,0.06,Wunderground v.1.15,2013-04-12 08:35:00,
2013-04-12 03:40:00,39.5,38.2,29.53,WNW,294,7.0,7.0,95,0.00,,,0.06,Wunderground v.1.15,2013-04-12 08:40:00,
2013-04-12 03:45:00,39.3,38.0,29.53,West,274,6.0,7.0,95,0.00,,,0.06,Wunderground v.1.15,2013-04-12 08:45:00,
2013-04-12 03:50:00,39.3,38.0,29.53,West,271,6.0,6.0,95,0.00,,,0.06,Wunderground v.1.15,2013-04-12 08:50:00,
2013-04-12 03:55:00,39.2,37.9,29.53,West,279,5.0,6.0,95,0.00,,,0.06,Wunderground v.1.15,2013-04-12 08:55:00,
2013-04-12 04:00:00,39.2,37.9,29.53,West,269,5.0,7.0,95,0.00,,,0.06,Wunderground v.1.15,2013-04-12 09:00:00,
2013-04-12 04:05:00,39.2,37.9,29.53,West,265,5.0,7.0,95,0.00,,,0.06,Wunderground v.1.15,2013-04-12 09:05:00,
2013-04-12 04:10:00,39.2,37.9,29.53,West,277,5.0,5.0,95,0.00,,,0.06,Wunderground v.1.15,2013-04-12 09:10:00,
2013-04-12 04:15:00,39.1,37.8,29.53,West,280,6.0,9.0,95,0.00,,,0.06,Wunderground v.1.15,2013-04-12 09:15:00,
2013-04-12 04:20:00,39.1,37.5,29.53,West,263,6.0,6.0,94,0.00,,,0.06,Wunderground v.1.15,2013-04-12 09:20:00,
2013-04-12 04:25:00,38.9,37.3,29.53,WSW,255,5.0,6.0,94,0.00,,,0.06,Wunderground v.1.15,2013-04-12 09:25:00,
2013-04-12 04:30:00,38.9,37.3,29.53,West,264,5.0,5.0,94,0.00,,,0.06,Wunderground v.1.15,2013-04-12 09:30:00,
2013-04-12 04:35:00,38.9,37.3,29.53,West,275,5.0,5.0,94,0.00,,,0.06,Wunderground v.1.15,2013-04-12 09:35:00,
2013-04-12 04:40:00,38.9,37.3,29.53,WSW,250,5.0,5.0,94,0.00,,,0.06,Wunderground v.1.15,2013-04-12 09:40:00,
2013-04-12 04:45:00,39.1,37.5,29.53,WSW,251,5.0,5.0,94,0.00,,,0.06,Wunderground v.1.15,2013-04-12 09:45:00,
2013-04-12 04:50:00,39.1,37.5,29.53,West,266,6.0,6.0,94,0.00,,,0.06,Wunderground v.1.15,2013-04-12 09:50:00,
2013-04-12 04:55:00,39.1,37.5,29.53,West,271,6.0,9.0,94,0.00,,,0.06,Wunderground v.1.15,2013-04-12 09:55:00,
2013-04-12 05:05:00,38.8,36.9,29.53,West,271,8.0,8.0,93,0.00,,,0.06,Wunderground v.1.15,2013-04-12 10:05:00,
2013-04-12 05:10:00,38.6,36.8,29.53,WNW,285,7.0,7.0,93,0.00,,,0.06,Wunderground v.1.15,2013-04-12 10:10:00,
2013-04-12 05:15:00,38.5,36.7,29.53,West,259,6.0,12.0,93,0.00,,,0.06,Wunderground v.1.15,2013-04-12 10:15:00,
2013-04-12 05:20:00,38.0,36.2,29.53,WNW,300,6.0,6.0,93,0.00,,,0.06,Wunderground v.1.15,2013-04-12 10:20:00,
2013-04-12 05:25:00,37.9,36.1,29.53,West,268,5.0,6.0,93,0.00,,,0.06,Wunderground v.1.15,2013-04-12 10:25:00,
2013-04-12 05:30:00,37.8,36.0,29.53,NW,318,4.0,5.0,93,0.00,,,0.06,Wunderground v.1.15,2013-04-12 10:30:00,
2013-04-12 05:35:00,37.8,36.0,29.53,WNW,283,5.0,5.0,93,0.00,,,0.06,Wunderground v.1.15,2013-04-12 10:35:00,
2013-04-12 05:40:00,37.8,36.0,29.53,WNW,294,5.0,5.0,93,0.00,,,0.06,Wunderground v.1.15,2013-04-12 10:40:00,
2013-04-12 05:45:00,37.8,36.0,29.53,West,271,4.0,6.0,93,0.00,,,0.06,Wunderground v.1.15,2013-04-12 10:45:00,
2013-04-12 05:50:00,37.8,36.0,29.53,WSW,257,4.0,5.0,93,0.00,,,0.06,Wunderground v.1.15,2013-04-12 10:50:00,
2013-04-12 05:55:00,37.8,36.0,29.53,West,259,4.0,5.0,93,0.00,,,0.06,Wunderground v.1.15,2013-04-12 10:55:00,
2013-04-12 06:00:00,37.8,36.0,29.53,WSW,258,4.0,4.0,93,0.00,,,0.06,Wunderground v.1.15,2013-04-12 11:00:00,
2013-04-12 06:10:00,37.8,36.0,29.53,West,265,4.0,4.0,93,0.00,,,0.06,Wunderground v.1.15,2013-04-12 11:10:00,
2013-04-12 06:15:00,37.8,36.0,29.54,West,264,3.0,4.0,93,0.00,,,0.06,Wunderground v.1.15,2013-04-12 11:15:00,
2013-04-12 06:20:00,37.6,35.8,29.54,West,269,3.0,6.0,93,0.00,,,0.06,Wunderground v.1.15,2013-04-12 11:20:00,
2013-04-12 06:25:00,37.6,35.8,29.54,West,269,3.0,7.0,93,0.00,,,0.06,Wunderground v.1.15,2013-04-12 11:25:00,
2013-04-12 06:30:00,37.8,36.0,29.54,West,267,3.0,3.0,93,0.00,,,0.06,Wunderground v.1.15,2013-04-12 11:30:00,
2013-04-12 06:35:00,37.8,36.0,29.54,West,268,3.0,5.0,93,0.00,,,0.06,Wunderground v.1.15,2013-04-12 11:35:00,
2013-04-12 06:40:00,37.8,36.0,29.54,West,268,4.0,4.0,93,0.00,,,0.06,Wunderground v.1.15,2013-04-12 11:40:00,
2013-04-12 06:45:00,37.9,36.1,29.54,West,266,3.0,4.0,93,0.00,,,0.06,Wunderground v.1.15,2013-04-12 11:45:00,
2013-04-12 06:50:00,37.9,36.1,29.54,West,263,3.0,5.0,93,0.00,,,0.06,Wunderground v.1.15,2013-04-12 11:50:00,
2013-04-12 06:55:00,37.8,36.0,29.54,West,267,4.0,5.0,93,0.00,,,0.06,Wunderground v.1.15,2013-04-12 11:55:00,
2013-04-12 07:00:00,37.8,35.7,29.55,WSW,258,5.0,6.0,92,0.00,,,0.06,Wunderground v.1.15,2013-04-12 12:00:00,
2013-04-12 07:04:00,37.8,35.7,29.55,West,265,7.0,7.0,92,0.00,,,0.06,Wunderground v.1.15,2013-04-12 12:04:00,
2013-04-12 07:09:00,37.8,35.4,29.55,West,268,7.0,7.0,91,0.00,,,0.06,Wunderground v.1.15,2013-04-12 12:09:00,
2013-04-12 07:14:00,37.6,34.9,29.55,WSW,252,8.0,11.0,90,0.00,,,0.06,Wunderground v.1.15,2013-04-12 12:14:00,
2013-04-12 07:20:00,37.5,34.3,29.55,WSW,243,9.0,9.0,88,0.00,,,0.06,Wunderground v.1.15,2013-04-12 12:20:00,
2013-04-12 07:25:00,37.6,33.8,29.55,West,271,10.0,14.0,86,0.00,,,0.06,Wunderground v.1.15,2013-04-12 12:25:00,
2013-04-12 07:30:00,37.6,33.5,29.55,West,270,10.0,11.0,85,0.00,,,0.06,Wunderground v.1.15,2013-04-12 12:30:00,
2013-04-12 07:35:00,37.6,33.2,29.55,WSW,249,10.0,11.0,84,0.00,,,0.06,Wunderground v.1.15,2013-04-12 12:35:00,
2013-04-12 07:40:00,37.6,32.6,29.55,WSW,240,9.0,9.0,82,0.00,,,0.06,Wunderground v.1.15,2013-04-12 12:40:00,
2013-04-12 07:45:00,37.8,32.8,29.56,West,273,8.0,12.0,82,0.00,,,0.06,Wunderground v.1.15,2013-04-12 12:45:00,
2013-04-12 07:50:00,37.9,32.9,29.56,West,266,8.0,10.0,82,0.00,,,0.06,Wunderground v.1.15,2013-04-12 12:50:00,
2013-04-12 07:55:00,37.9,32.9,29.56,WNW,285,8.0,17.0,82,0.00,,,0.06,Wunderground v.1.15,2013-04-12 12:55:00,
2013-04-12 08:00:00,37.9,32.6,29.56,WNW,292,9.0,11.0,81,0.00,,,0.06,Wunderground v.1.15,2013-04-12 13:00:00,
2013-04-12 08:09:00,37.9,32.6,29.56,West,262,9.0,9.0,81,0.00,,,0.06,Wunderground v.1.15,2013-04-12 13:09:00,
2013-04-12 08:14:00,37.9,32.6,29.57,West,281,8.0,10.0,81,0.00,,,0.06,Wunderground v.1.15,2013-04-12 13:14:00,
2013-04-12 08:19:00,37.9,32.6,29.57,WSW,254,8.0,8.0,81,0.00,,,0.06,Wunderground v.1.15,2013-04-12 13:19:00,
2013-04-12 08:25:00,37.9,32.6,29.57,WSW,244,8.0,9.0,81,0.00,,,0.06,Wunderground v.1.15,2013-04-12 13:25:00,
2013-04-12 08:30:00,38.0,32.7,29.58,West,261,8.0,15.0,81,0.00,,,0.06,Wunderground v.1.15,2013-04-12 13:30:00,
2013-04-12 08:35:00,38.0,32.7,29.58,WSW,252,8.0,15.0,81,0.00,,,0.06,Wunderground v.1.15,2013-04-12 13:35:00,
2013-04-12 08:40:00,38.0,32.7,29.58,West,260,7.0,13.0,81,0.00,,,0.06,Wunderground v.1.15,2013-04-12 13:40:00,
2013-04-12 08:45:00,38.0,32.4,29.57,WNW,283,7.0,13.0,80,0.00,,,0.06,Wunderground v.1.15,2013-04-12 13:45:00,
2013-04-12 08:50:00,38.0,32.7,29.57,West,269,8.0,11.0,81,0.00,,,0.06,Wunderground v.1.15,2013-04-12 13:50:00,
2013-04-12 08:55:00,38.0,32.4,29.57,WSW,239,9.0,11.0,80,0.00,,,0.06,Wunderground v.1.15,2013-04-12 13:55:00,
2013-04-12 09:00:00,38.0,32.4,29.58,WSW,246,8.0,8.0,80,0.00,,,0.06,Wunderground v.1.15,2013-04-12 14:00:00,
2013-04-12 09:04:00,38.0,32.4,29.58,West,266,7.0,8.0,80,0.00,,,0.06,Wunderground v.1.15,2013-04-12 14:04:00,
2013-04-12 09:09:00,38.0,32.7,29.58,WNW,283,7.0,15.0,81,0.00,,,0.06,Wunderground v.1.15,2013-04-12 14:09:00,
2013-04-12 09:15:00,37.9,32.3,29.58,WSW,237,8.0,15.0,80,0.00,,,0.06,Wunderground v.1.15,2013-04-12 14:15:00,
2013-04-12 09:19:00,37.8,31.9,29.58,West,277,9.0,10.0,79,0.00,,,0.06,Wunderground v.1.15,2013-04-12 14:19:00,
2013-04-12 09:24:00,37.9,32.0,29.58,West,267,10.0,12.0,79,0.00,,,0.06,Wunderground v.1.15,2013-04-12 14:24:00,
2013-04-12 09:29:00,37.9,32.0,29.58,West,261,11.0,12.0,79,0.00,,,0.06,Wunderground v.1.15,2013-04-12 14:29:00,
2013-04-12 09:34:00,38.0,32.1,29.58,WSW,248,11.0,12.0,79,0.00,,,0.06,Wunderground v.1.15,2013-04-12 14:34:00,
2013-04-12 09:40:00,38.0,32.1,29.58,WSW,250,10.0,10.0,79,0.00,,,0.06,Wunderground v.1.15,2013-04-12 14:40:00,
2013-04-12 09:45:00,38.0,32.1,29.58,WSW,250,9.0,12.0,79,0.00,,,0.06,Wunderground v.1.15,2013-04-12 14:45:00,
2013-04-12 09:50:00,38.0,32.1,29.58,WSW,246,8.0,11.0,79,0.00,,,0.06,Wunderground v.1.15,2013-04-12 14:50:00,
2013-04-12 09:55:00,38.0,31.7,29.58,West,276,8.0,11.0,78,0.00,,,0.06,Wunderground v.1.15,2013-04-12 14:55:00,
2013-04-12 10:00:00,38.0,32.1,29.59,West,259,7.0,10.0,79,0.00,,,0.06,Wunderground v.1.15,2013-04-12 15:00:00,
2013-04-12 10:04:00,38.0,31.7,29.59,West,274,8.0,10.0,78,0.00,,,0.06,Wunderground v.1.15,2013-04-12 15:04:00,
2013-04-12 10:09:00,38.0,31.4,29.59,West,269,10.0,10.0,77,0.00,,,0.06,Wunderground v.1.15,2013-04-12 15:09:00,
2013-04-12 10:14:00,38.0,31.7,29.59,West,265,9.0,13.0,78,0.00,,,0.06,Wunderground v.1.15,2013-04-12 15:14:00,
2013-04-12 10:19:00,38.0,31.7,29.59,WSW,250,9.0,9.0,78,0.00,,,0.06,Wunderground v.1.15,2013-04-12 15:19:00,
2013-04-12 10:24:00,38.2,31.9,29.59,WSW,248,10.0,12.0,78,0.00,,,0.06,Wunderground v.1.15,2013-04-12 15:24:00,
2013-04-12 10:29:00,38.2,31.6,29.59,WNW,286,10.0,11.0,77,0.00,,,0.06,Wunderground v.1.15,2013-04-12 15:29:00,
2013-04-12 10:34:00,38.3,32.0,29.59,WSW,248,10.0,11.0,78,0.00,,,0.06,Wunderground v.1.15,2013-04-12 15:34:00,
2013-04-12 10:39:00,38.5,32.2,29.59,WSW,245,9.0,9.0,78,0.00,,,0.06,Wunderground v.1.15,2013-04-12 15:39:00,
2013-04-12 10:44:00,38.5,31.9,29.59,West,281,9.0,11.0,77,0.00,,,0.06,Wunderground v.1.15,2013-04-12 15:44:00,
2013-04-12 10:49:00,38.8,32.5,29.59,West,279,10.0,14.0,78,0.00,,,0.06,Wunderground v.1.15,2013-04-12 15:49:00,
2013-04-12 10:55:00,38.9,32.3,29.59,WSW,252,11.0,17.0,77,0.00,,,0.06,Wunderground v.1.15,2013-04-12 15:55:00,
2013-04-12 11:00:00,38.9,32.3,29.60,West,270,11.0,11.0,77,0.00,,,0.06,Wunderground v.1.15,2013-04-12 16:00:00,
2013-04-12 11:05:00,39.3,33.0,29.60,WSW,247,10.0,12.0,78,0.00,,,0.06,Wunderground v.1.15,2013-04-12 16:05:00,
2013-04-12 11:10:00,39.3,32.7,29.60,WSW,257,9.0,9.0,77,0.00,,,0.06,Wunderground v.1.15,2013-04-12 16:10:00,
2013-04-12 11:15:00,39.2,32.6,29.60,WSW,255,10.0,15.0,77,0.00,,,0.06,Wunderground v.1.15,2013-04-12 16:15:00,
2013-04-12 11:19:00,39.1,32.5,29.60,WSW,248,11.0,13.0,77,0.00,,,0.06,Wunderground v.1.15,2013-04-12 16:19:00,
2013-04-12 11:24:00,39.2,32.6,29.60,West,267,12.0,13.0,77,0.00,,,0.06,Wunderground v.1.15,2013-04-12 16:24:00,
2013-04-12 11:29:00,39.3,32.7,29.61,WSW,237,11.0,12.0,77,0.00,,,0.06,Wunderground v.1.15,2013-04-12 16:29:00,
2013-04-12 11:34:00,39.5,33.2,29.61,West,275,10.0,12.0,78,0.00,,,0.06,Wunderground v.1.15,2013-04-12 16:34:00,
2013-04-12 11:39:00,39.6,33.3,29.61,WSW,247,9.0,9.0,78,0.00,,,0.06,Wunderground v.1.15,2013-04-12 16:39:00,
2013-04-12 11:44:00,39.6,33.0,29.61,WSW,240,9.0,10.0,77,0.00,,,0.06,Wunderground v.1.15,2013-04-12 16:44:00,
2013-04-12 11:49:00,39.6,33.0,29.61,WSW,247,11.0,11.0,77,0.00,,,0.06,Wunderground v.1.15,2013-04-12 16:49:00,
2013-04-12 11:54:00,39.5,32.9,29.61,West,266,12.0,12.0,77,0.00,,,0.06,Wunderground v.1.15,2013-04-12 16:54:00,
2013-04-12 11:59:00,39.6,33.0,29.61,West,263,11.0,11.0,77,0.00,,,0.06,Wunderground v.1.15,2013-04-12 16:59:00,
2013-04-12 12:05:00,40.1,33.8,29.61,West,259,10.0,11.0,78,0.00,,,0.06,Wunderground v.1.15,2013-04-12 17:05:00,
2013-04-12 12:10:00,40.3,33.7,29.61,WSW,241,9.0,9.0,77,0.00,,,0.06,Wunderground v.1.15,2013-04-12 17:10:00,
2013-04-12 12:15:00,40.2,33.2,29.61,WNW,287,10.0,10.0,76,0.00,,,0.06,Wunderground v.1.15,2013-04-12 17:15:00,
2013-04-12 12:20:00,40.6,33.6,29.61,West,273,10.0,10.0,76,0.00,,,0.06,Wunderground v.1.15,2013-04-12 17:20:00,
2013-04-12 12:25:00,40.6,33.3,29.61,WSW,257,9.0,19.0,75,0.00,,,0.06,Wunderground v.1.15,2013-04-12 17:25:00,
2013-04-12 12:30:00,41.2,33.9,29.61,West,267,11.0,11.0,75,0.00,,,0.06,Wunderground v.1.15,2013-04-12 17:30:00,
2013-04-12 12:35:00,41.9,33.9,29.61,WNW,282,9.0,18.0,73,0.00,,,0.06,Wunderground v.1.15,2013-04-12 17:35:00,
2013-04-12 12:44:00,42.2,34.2,29.61,WSW,244,12.0,12.0,73,0.00,,,0.06,Wunderground v.1.15,2013-04-12 17:44:00,
2013-04-12 12:59:00,42.2,34.2,29.61,WSW,255,10.0,10.0,73,0.00,,,0.06,Wunderground v.1.15,2013-04-12 17:59:00,
2013-04-12 13:05:00,42.5,35.5,29.61,West,266,11.0,11.0,76,0.00,,,0.06,Wunderground v.1.15,2013-04-12 18:05:00,
2013-04-12 13:10:00,42.3,34.6,29.61,SW,234,11.0,11.0,74,0.00,,,0.06,Wunderground v.1.15,2013-04-12 18:10:00,
2013-04-12 13:15:00,42.5,35.1,29.62,WSW,252,10.0,11.0,75,0.00,,,0.06,Wunderground v.1.15,2013-04-12 18:15:00,
2013-04-12 13:24:00,42.3,34.3,29.62,WSW,256,10.0,22.0,73,0.00,,,0.06,Wunderground v.1.15,2013-04-12 18:24:00,
2013-04-12 13:29:00,41.6,34.3,29.62,West,263,13.0,13.0,75,0.00,,,0.06,Wunderground v.1.15,2013-04-12 18:29:00,
2013-04-12 14:30:00,42.5,36.1,29.63,SW,234,11.0,11.0,78,0.00,,,0.06,Wunderground v.1.15,2013-04-12 19:30:00,
2013-04-12 14:35:00,42.2,35.2,29.63,WSW,255,11.0,16.0,76,0.00,,,0.06,Wunderground v.1.15,2013-04-12 19:35:00,
2013-04-12 14:40:00,41.9,34.9,29.63,West,267,12.0,19.0,76,0.00,,,0.06,Wunderground v.1.15,2013-04-12 19:40:00,
2013-04-12 14:45:00,41.6,34.6,29.64,West,259,14.0,19.0,76,0.00,,,0.06,Wunderground v.1.15,2013-04-12 19:45:00,
2013-04-12 14:50:00,41.8,35.1,29.64,WSW,239,13.0,15.0,77,0.00,,,0.06,Wunderground v.1.15,2013-04-12 19:50:00,
2013-04-12 14:55:00,41.9,35.2,29.64,WNW,288,11.0,15.0,77,0.00,,,0.06,Wunderground v.1.15,2013-04-12 19:55:00,
2013-04-12 15:00:00,41.8,35.4,29.64,West,273,11.0,11.0,78,0.00,,,0.06,Wunderground v.1.15,2013-04-12 20:00:00,
2013-04-12 15:10:00,42.2,35.2,29.64,WSW,254,11.0,11.0,76,0.00,,,0.06,Wunderground v.1.15,2013-04-12 20:10:00,
2013-04-12 15:15:00,42.5,35.5,29.65,West,275,11.0,11.0,76,0.00,,,0.06,Wunderground v.1.15,2013-04-12 20:15:00,
2013-04-12 15:20:00,42.9,35.9,29.65,WSW,249,9.0,9.0,76,0.00,,,0.06,Wunderground v.1.15,2013-04-12 20:20:00,
2013-04-12 15:25:00,42.2,35.2,29.65,WSW,255,10.0,12.0,76,0.00,,,0.06,Wunderground v.1.15,2013-04-12 20:25:00,
2013-04-12 15:30:00,41.9,35.5,29.65,WSW,242,12.0,13.0,78,0.00,,,0.06,Wunderground v.1.15,2013-04-12 20:30:00,
2013-04-12 15:35:00,41.8,35.8,29.65,West,265,12.0,13.0,79,0.00,,,0.06,Wunderground v.1.15,2013-04-12 20:35:00,
2013-04-12 15:40:00,41.9,35.9,29.65,WSW,257,12.0,19.0,79,0.00,,,0.06,Wunderground v.1.15,2013-04-12 20:40:00,
2013-04-12 15:44:00,42.1,36.1,29.65,WSW,241,11.0,19.0,79,0.00,,,0.06,Wunderground v.1.15,2013-04-12 20:44:00,
2013-04-12 15:49:00,42.2,35.8,29.65,WSW,253,10.0,10.0,78,0.00,,,0.06,Wunderground v.1.15,2013-04-12 20:49:00,
2013-04-12 15:54:00,42.5,35.8,29.65,West,267,9.0,16.0,77,0.00,,,0.06,Wunderground v.1.15,2013-04-12 20:54:00,
2013-04-12 15:59:00,42.5,35.8,29.65,West,276,9.0,9.0,77,0.00,,,0.06,Wunderground v.1.15,2013-04-12 20:59:00,
2013-04-12 16:05:00,42.6,35.6,29.65,West,275,9.0,19.0,76,0.00,,,0.06,Wunderground v.1.15,2013-04-12 21:05:00,
2013-04-12 16:10:00,42.5,35.5,29.65,West,264,10.0,14.0,76,0.00,,,0.06,Wunderground v.1.15,2013-04-12 21:10:00,
2013-04-12 16:15:00,42.6,35.6,29.66,West,273,11.0,14.0,76,0.00,,,0.06,Wunderground v.1.15,2013-04-12 21:15:00,
2013-04-12 16:20:00,42.6,35.6,29.66,SW,236,10.0,11.0,76,0.00,,,0.06,Wunderground v.1.15,2013-04-12 21:20:00,
2013-04-12 16:30:00,42.8,35.8,29.67,WSW,242,10.0,12.0,76,0.00,,,0.06,Wunderground v.1.15,2013-04-12 21:30:00,
2013-04-12 16:35:00,42.6,35.2,29.67,West,260,10.0,16.0,75,0.00,,,0.06,Wunderground v.1.15,2013-04-12 21:35:00,
2013-04-12 16:40:00,42.8,35.4,29.67,WSW,258,11.0,11.0,75,0.00,,,0.06,Wunderground v.1.15,2013-04-12 21:40:00,
2013-04-12 16:45:00,42.9,35.5,29.67,West,267,11.0,11.0,75,0.00,,,0.06,Wunderground v.1.15,2013-04-12 21:45:00,
2013-04-12 16:50:00,43.1,35.0,29.67,West,259,11.0,12.0,73,0.00,,,0.06,Wunderground v.1.15,2013-04-12 21:50:00,
2013-04-12 16:55:00,43.2,35.1,29.67,West,270,10.0,12.0,73,0.00,,,0.06,Wunderground v.1.15,2013-04-12 21:55:00,
2013-04-12 16:59:00,43.2,35.1,29.67,WSW,252,9.0,13.0,73,0.00,,,0.06,Wunderground v.1.15,2013-04-12 21:59:00,
2013-04-12 17:05:00,43.3,35.6,29.67,SW,220,9.0,13.0,74,0.00,,,0.06,Wunderground v.1.15,2013-04-12 22:05:00,
2013-04-12 17:10:00,43.3,35.6,29.67,West,270,9.0,13.0,74,0.00,,,0.06,Wunderground v.1.15,2013-04-12 22:10:00,
2013-04-12 17:15:00,43.3,35.9,29.69,West,265,9.0,13.0,75,0.00,,,0.06,Wunderground v.1.15,2013-04-12 22:15:00,
2013-04-12 17:20:00,43.2,36.1,29.69,West,263,10.0,18.0,76,0.00,,,0.06,Wunderground v.1.15,2013-04-12 22:20:00,
2013-04-12 17:25:00,42.6,35.6,29.69,West,269,12.0,18.0,76,0.00,,,0.06,Wunderground v.1.15,2013-04-12 22:25:00,
2013-04-12 17:30:00,42.3,35.9,29.69,West,261,12.0,12.0,78,0.00,,,0.06,Wunderground v.1.15,2013-04-12 22:30:00,
2013-04-12 17:40:00,41.9,35.5,29.69,WNW,286,11.0,11.0,78,0.00,,,0.06,Wunderground v.1.15,2013-04-12 22:40:00,
2013-04-12 17:45:00,41.9,35.9,29.70,West,272,11.0,13.0,79,0.00,,,0.06,Wunderground v.1.15,2013-04-12 22:45:00,
2013-04-12 17:50:00,41.8,36.4,29.70,WNW,283,11.0,11.0,81,0.00,,,0.06,Wunderground v.1.15,2013-04-12 22:50:00,
2013-04-12 17:55:00,41.5,36.4,29.70,West,273,10.0,13.0,82,0.00,,,0.06,Wunderground v.1.15,2013-04-12 22:55:00,
2013-04-12 18:00:00,41.3,36.2,29.71,SW,225,10.0,10.0,82,0.00,,,0.06,Wunderground v.1.15,2013-04-12 23:00:00,
2013-04-12 18:05:00,41.2,36.4,29.71,West,269,10.0,10.0,83,0.00,,,0.06,Wunderground v.1.15,2013-04-12 23:05:00,
2013-04-12 18:10:00,41.1,36.6,29.71,West,266,9.0,10.0,84,0.00,,,0.06,Wunderground v.1.15,2013-04-12 23:10:00,
2013-04-12 18:15:00,41.1,36.6,29.71,West,265,10.0,12.0,84,0.00,,,0.06,Wunderground v.1.15,2013-04-12 23:15:00,
2013-04-12 18:20:00,41.1,36.6,29.71,West,272,10.0,10.0,84,0.00,,,0.06,Wunderground v.1.15,2013-04-12 23:20:00,
2013-04-12 18:25:00,41.1,36.6,29.71,West,269,10.0,10.0,84,0.00,,,0.06,Wunderground v.1.15,2013-04-12 23:25:00,
2013-04-12 18:30:00,41.1,36.6,29.71,West,265,10.0,10.0,84,0.00,,,0.06,Wunderground v.1.15,2013-04-12 23:30:00,
2013-04-12 18:35:00,41.1,36.6,29.71,West,277,10.0,13.0,84,0.00,,,0.06,Wunderground v.1.15,2013-04-12 23:35:00,
2013-04-12 18:40:00,41.1,36.3,29.71,West,271,11.0,13.0,83,0.00,,,0.06,Wunderground v.1.15,2013-04-12 23:40:00,
2013-04-12 18:45:00,40.9,36.1,29.72,West,272,10.0,13.0,83,0.00,,,0.06,Wunderground v.1.15,2013-04-12 23:45:00,
2013-04-12 18:50:00,40.9,36.1,29.72,West,269,10.0,10.0,83,0.00,,,0.06,Wunderground v.1.15,2013-04-12 23:50:00,
2013-04-12 18:55:00,40.8,36.0,29.72,West,279,10.0,10.0,83,0.00,,,0.06,Wunderground v.1.15,2013-04-12 23:55:00,
2013-04-12 19:00:00,40.8,36.0,29.72,West,262,9.0,10.0,83,0.00,,,0.06,Wunderground v.1.15,2013-04-13 00:00:00,
2013-04-12 19:04:00,40.8,36.0,29.72,NW,304,9.0,10.0,83,0.00,,,0.06,Wunderground v.1.15,2013-04-13 00:04:00,
2013-04-12 19:09:00,40.8,36.0,29.72,WSW,256,10.0,10.0,83,0.00,,,0.06,Wunderground v.1.15,2013-04-13 00:09:00,
2013-04-12 19:14:00,40.8,35.7,29.72,WNW,289,10.0,17.0,82,0.00,,,0.06,Wunderground v.1.15,2013-04-13 00:14:00,
2013-04-12 19:19:00,40.8,35.7,29.72,West,273,10.0,18.0,82,0.00,,,0.06,Wunderground v.1.15,2013-04-13 00:19:00,
2013-04-12 19:25:00,40.6,35.5,29.72,West,273,10.0,18.0,82,0.00,,,0.06,Wunderground v.1.15,2013-04-13 00:25:00,
2013-04-12 19:30:00,40.5,35.4,29.73,West,273,11.0,11.0,82,0.00,,,0.06,Wunderground v.1.15,2013-04-13 00:30:00,
2013-04-12 19:35:00,40.5,35.4,29.73,West,263,12.0,17.0,82,0.00,,,0.06,Wunderground v.1.15,2013-04-13 00:35:00,
2013-04-12 19:40:00,40.3,35.2,29.73,WSW,255,13.0,13.0,82,0.00,,,0.06,Wunderground v.1.15,2013-04-13 00:40:00,
2013-04-12 19:45:00,40.3,35.2,29.73,West,277,11.0,13.0,82,0.00,,,0.06,Wunderground v.1.15,2013-04-13 00:45:00,
2013-04-12 19:50:00,40.2,35.1,29.73,West,273,11.0,11.0,82,0.00,,,0.06,Wunderground v.1.15,2013-04-13 00:50:00,
2013-04-12 19:55:00,40.2,35.1,29.73,West,274,11.0,11.0,82,0.00,,,0.06,Wunderground v.1.15,2013-04-13 00:55:00,
2013-04-12 20:00:00,40.1,35.0,29.74,West,276,10.0,10.0,82,0.00,,,0.06,Wunderground v.1.15,2013-04-13 01:00:00,
2013-04-12 20:05:00,39.9,34.9,29.74,West,271,10.0,10.0,82,0.00,,,0.06,Wunderground v.1.15,2013-04-13 01:05:00,
2013-04-12 20:10:00,39.8,35.1,29.74,WNW,284,9.0,11.0,83,0.00,,,0.06,Wunderground v.1.15,2013-04-13 01:10:00,
2013-04-12 20:15:00,39.6,34.9,29.74,West,265,9.0,18.0,83,0.00,,,0.06,Wunderground v.1.15,2013-04-13 01:15:00,
2013-04-12 20:19:00,39.6,34.6,29.74,WNW,291,10.0,10.0,82,0.00,,,0.06,Wunderground v.1.15,2013-04-13 01:19:00,
2013-04-12 20:24:00,39.6,34.6,29.74,West,281,10.0,10.0,82,0.00,,,0.06,Wunderground v.1.15,2013-04-13 01:24:00,
2013-04-12 20:29:00,39.6,34.6,29.75,WNW,288,8.0,10.0,82,0.00,,,0.06,Wunderground v.1.15,2013-04-13 01:29:00,
2013-04-12 20:34:00,39.6,34.6,29.75,West,269,8.0,10.0,82,0.00,,,0.06,Wunderground v.1.15,2013-04-13 01:34:00,
2013-04-12 20:40:00,39.6,34.6,29.75,West,263,8.0,8.0,82,0.00,,,0.06,Wunderground v.1.15,2013-04-13 01:40:00,
2013-04-12 20:45:00,39.6,34.6,29.75,WNW,286,6.0,8.0,82,0.00,,,0.06,Wunderground v.1.15,2013-04-13 01:45:00,
2013-04-12 20:50:00,39.5,34.2,29.75,West,272,6.0,10.0,81,0.00,,,0.06,Wunderground v.1.15,2013-04-13 01:50:00,
2013-04-12 20:55:00,39.5,34.2,29.75,West,279,8.0,10.0,81,0.00,,,0.06,Wunderground v.1.15,2013-04-13 01:55:00,
2013-04-12 21:00:00,39.5,33.8,29.76,West,275,7.0,7.0,80,0.00,,,0.06,Wunderground v.1.15,2013-04-13 02:00:00,
2013-04-12 21:05:00,39.3,33.6,29.76,NW,324,7.0,7.0,80,0.00,,,0.06,Wunderground v.1.15,2013-04-13 02:05:00,
2013-04-12 21:10:00,39.3,34.0,29.76,West,281,7.0,7.0,81,0.00,,,0.06,Wunderground v.1.15,2013-04-13 02:10:00,
2013-04-12 21:15:00,39.1,34.1,29.77,WNW,299,6.0,7.0,82,0.00,,,0.06,Wunderground v.1.15,2013-04-13 02:15:00,
2013-04-12 21:20:00,39.1,34.4,29.77,WNW,290,6.0,6.0,83,0.00,,,0.06,Wunderground v.1.15,2013-04-13 02:20:00,
2013-04-12 21:25:00,38.9,34.2,29.77,WNW,288,6.0,6.0,83,0.00,,,0.06,Wunderground v.1.15,2013-04-13 02:25:00,
2013-04-12 21:34:00,38.8,34.4,29.77,WNW,286,5.0,6.0,84,0.00,,,0.06,Wunderground v.1.15,2013-04-13 02:34:00,
2013-04-12 21:39:00,38.8,34.1,29.77,West,279,5.0,12.0,83,0.00,,,0.06,Wunderground v.1.15,2013-04-13 02:39:00,
2013-04-12 21:44:00,38.8,34.1,29.78,West,281,5.0,12.0,83,0.00,,,0.06,Wunderground v.1.15,2013-04-13 02:44:00,
2013-04-12 21:49:00,38.8,33.8,29.78,West,264,6.0,6.0,82,0.00,,,0.06,Wunderground v.1.15,2013-04-13 02:49:00,
2013-04-12 21:54:00,38.8,33.8,29.78,WSW,257,5.0,6.0,82,0.00,,,0.06,Wunderground v.1.15,2013-04-13 02:54:00,
2013-04-12 21:59:00,38.8,33.5,29.78,West,277,6.0,6.0,81,0.00,,,0.06,Wunderground v.1.15,2013-04-13 02:59:00,
2013-04-12 22:05:00,38.8,33.5,29.78,NW,309,6.0,6.0,81,0.00,,,0.06,Wunderground v.1.15,2013-04-13 03:05:00,
2013-04-12 22:10:00,38.8,33.2,29.78,West,267,6.0,12.0,80,0.00,,,0.06,Wunderground v.1.15,2013-04-13 03:10:00,
2013-04-12 22:15:00,38.9,33.3,29.78,West,275,5.0,12.0,80,0.00,,,0.06,Wunderground v.1.15,2013-04-13 03:15:00,
2013-04-12 22:20:00,38.8,32.8,29.78,West,264,6.0,12.0,79,0.00,,,0.06,Wunderground v.1.15,2013-04-13 03:20:00,
2013-04-12 22:25:00,38.8,32.8,29.78,WNW,294,7.0,12.0,79,0.00,,,0.06,Wunderground v.1.15,2013-04-13 03:25:00,
2013-04-12 22:30:00,38.8,32.8,29.79,WNW,287,7.0,7.0,79,0.00,,,0.06,Wunderground v.1.15,2013-04-13 03:30:00,
2013-04-12 22:35:00,38.8,32.8,29.79,West,280,7.0,7.0,79,0.00,,,0.06,Wunderground v.1.15,2013-04-13 03:35:00,
2013-04-12 22:40:00,38.8,32.5,29.79,WNW,296,6.0,6.0,78,0.00,,,0.06,Wunderground v.1.15,2013-04-13 03:40:00,
2013-04-12 22:49:00,38.8,31.6,29.79,NW,309,7.0,12.0,75,0.00,,,0.06,Wunderground v.1.15,2013-04-13 03:49:00,
2013-04-12 22:54:00,38.8,31.6,29.79,West,269,8.0,12.0,75,0.00,,,0.06,Wunderground v.1.15,2013-04-13 03:54:00,
2013-04-12 22:59:00,38.8,31.9,29.79,NW,311,7.0,7.0,76,0.00,,,0.06,Wunderground v.1.15,2013-04-13 03:59:00,
2013-04-12 23:05:00,38.8,31.9,29.79,WNW,294,6.0,7.0,76,0.00,,,0.00,Wunderground v.1.15,2013-04-13 04:05:00,
2013-04-12 23:10:00,38.6,31.7,29.79,WNW,299,6.0,6.0,76,0.00,,,0.00,Wunderground v.1.15,2013-04-13 04:10:00,
2013-04-12 23:15:00,38.6,32.0,29.79,WNW,296,5.0,6.0,77,0.00,,,0.00,Wunderground v.1.15,2013-04-13 04:15:00,
2013-04-12 23:20:00,38.6,32.0,29.79,NW,309,5.0,10.0,77,0.00,,,0.00,Wunderground v.1.15,2013-04-13 04:20:00,
2013-04-12 23:25:00,38.5,31.9,29.79,WNW,289,6.0,10.0,77,0.00,,,0.00,Wunderground v.1.15,2013-04-13 04:25:00,
2013-04-12 23:30:00,38.5,31.6,29.79,WNW,284,6.0,6.0,76,0.00,,,0.00,Wunderground v.1.15,2013-04-13 04:30:00,
2013-04-12 23:35:00,38.5,31.3,29.79,West,271,5.0,6.0,75,0.00,,,0.00,Wunderground v.1.15,2013-04-13 04:35:00,
2013-04-12 23:40:00,38.5,30.9,29.79,West,281,5.0,5.0,74,0.00,,,0.00,Wunderground v.1.15,2013-04-13 04:40:00,
2013-04-12 23:45:00,38.6,30.7,29.79,WNW,293,5.0,9.0,73,0.00,,,0.00,Wunderground v.1.15,2013-04-13 04:45:00,
2013-04-12 23:50:00,38.6,30.7,29.79,WNW,300,6.0,6.0,73,0.00,,,0.00,Wunderground v.1.15,2013-04-13 04:50:00,
2013-04-12 23:55:00,38.6,30.0,29.79,WNW,303,7.0,7.0,71,0.00,,,0.00,Wunderground v.1.15,2013-04-13 04:55:00,